sensor_id;sensor_type;location;lat;lon;timestamp;pressure;altitude;pressure_sealevel;temperature;humidity
12664;BME280;6396;58.490;15.528;2023-05-08T00:02:04;102039.25;;;6.86;67.38
12664;BME280;6396;58.490;15.528;2023-05-08T00:04:31;102261.78;;;8.43;71.08
12664;BME280;6396;58.490;15.528;2023-05-08T00:06:57;102222.09;;;8.23;69.60
12664;BME280;6396;58.490;15.528;2023-05-08T00:09:26;102271.56;;;8.57;73.62
12664;BME280;6396;58.490;15.528;2023-05-08T00:11:52;102272.47;;;8.59;71.56
12664;BME280;6396;58.490;15.528;2023-05-08T00:14:19;102267.16;;;8.53;67.52
12664;BME280;6396;58.490;15.528;2023-05-08T00:16:46;101789.72;;;5.83;71.56
12664;BME280;6396;58.490;15.528;2023-05-08T00:19:13;102156.75;;;7.78;66.14
12664;BME280;6396;58.490;15.528;2023-05-08T00:21:39;101911.66;;;6.21;68.58
12664;BME280;6396;58.490;15.528;2023-05-08T00:24:07;102279.34;;;8.47;68.09
12664;BME280;6396;58.490;15.528;2023-05-08T00:26:35;102001.69;;;6.92;74.52
12664;BME280;6396;58.490;15.528;2023-05-08T00:29:02;102142.69;;;7.72;69.59
12664;BME280;6396;58.490;15.528;2023-05-08T00:31:29;102274.06;;;8.42;65.98
12664;BME280;6396;58.490;15.528;2023-05-08T00:33:56;102276.69;;;8.39;68.28
12664;BME280;6396;58.490;15.528;2023-05-08T00:36:22;102047.38;;;7.04;71.71
12664;BME280;6396;58.490;15.528;2023-05-08T00:38:49;102280.16;;;8.38;69.86
12664;BME280;6396;58.490;15.528;2023-05-08T00:41:17;102272.22;;;8.34;65.41
12664;BME280;6396;58.490;15.528;2023-05-08T00:43:45;102117.78;;;7.37;66.78
12664;BME280;6396;58.490;15.528;2023-05-08T00:46:13;101959.00;;;6.31;67.47
12664;BME280;6396;58.490;15.528;2023-05-08T00:48:41;102276.56;;;8.27;64.92
12664;BME280;6396;58.490;15.528;2023-05-08T00:51:10;102206.31;;;7.44;67.88
12664;BME280;6396;58.490;15.528;2023-05-08T00:53:39;102284.47;;;8.30;70.93
12664;BME280;6396;58.490;15.528;2023-05-08T00:56:09;102278.28;;;8.25;67.60
12664;BME280;6396;58.490;15.528;2023-05-08T00:58:36;102287.03;;;8.24;73.53
12664;BME280;6396;58.490;15.528;2023-05-08T01:01:06;102287.00;;;8.23;67.90
12664;BME280;6396;58.490;15.528;2023-05-08T01:03:34;102295.78;;;8.23;70.48
12664;BME280;6396;58.490;15.528;2023-05-08T01:06:02;102247.06;;;7.80;67.59
12664;BME280;6396;58.490;15.528;2023-05-08T01:08:30;102299.22;;;8.19;68.71
12664;BME280;6396;58.490;15.528;2023-05-08T01:11:03;102099.72;;;6.91;76.01
12664;BME280;6396;58.490;15.528;2023-05-08T01:13:41;102279.88;;;8.14;79.00
12664;BME280;6396;58.490;15.528;2023-05-08T01:16:15;102059.34;;;6.81;74.65
12664;BME280;6396;58.490;15.528;2023-05-08T01:18:46;102130.97;;;6.72;78.57
12664;BME280;6396;58.490;15.528;2023-05-08T01:21:23;101975.25;;;6.06;72.47
12664;BME280;6396;58.490;15.528;2023-05-08T01:24:18;102256.19;;;7.36;84.22
12664;BME280;6396;58.490;15.528;2023-05-08T01:27:07;102256.25;;;7.44;84.23
12664;BME280;6396;58.490;15.528;2023-05-08T01:30:07;102287.44;;;7.84;78.73
12664;BME280;6396;58.490;15.528;2023-05-08T01:32:41;102322.53;;;7.86;75.47
12664;BME280;6396;58.490;15.528;2023-05-08T01:35:22;102221.94;;;7.32;81.78
12664;BME280;6396;58.490;15.528;2023-05-08T01:37:56;102293.38;;;7.68;85.94
12664;BME280;6396;58.490;15.528;2023-05-08T01:40:30;102225.34;;;7.26;85.12
12664;BME280;6396;58.490;15.528;2023-05-08T01:43:09;101970.25;;;5.64;85.55
12664;BME280;6396;58.490;15.528;2023-05-08T01:45:40;102300.88;;;7.39;85.30
12664;BME280;6396;58.490;15.528;2023-05-08T01:48:16;102343.41;;;7.14;88.36
12664;BME280;6396;58.490;15.528;2023-05-08T01:50:46;102308.56;;;7.26;91.63
12664;BME280;6396;58.490;15.528;2023-05-08T01:53:20;101855.09;;;4.65;90.60
12664;BME280;6396;58.490;15.528;2023-05-08T01:55:49;102306.66;;;7.16;89.25
12664;BME280;6396;58.490;15.528;2023-05-08T01:58:17;102308.25;;;7.05;89.82
12664;BME280;6396;58.490;15.528;2023-05-08T02:00:44;102341.44;;;7.00;96.42
12664;BME280;6396;58.490;15.528;2023-05-08T02:03:15;102256.72;;;6.57;95.13
12664;BME280;6396;58.490;15.528;2023-05-08T02:05:43;102312.38;;;6.89;92.98
12664;BME280;6396;58.490;15.528;2023-05-08T02:08:12;102321.03;;;6.84;95.64
12664;BME280;6396;58.490;15.528;2023-05-08T02:10:41;102254.72;;;6.43;99.06
12664;BME280;6396;58.490;15.528;2023-05-08T02:13:09;102355.09;;;6.80;99.42
12664;BME280;6396;58.490;15.528;2023-05-08T02:15:36;102292.56;;;6.57;99.73
12664;BME280;6396;58.490;15.528;2023-05-08T02:18:06;101826.66;;;3.90;96.39
12664;BME280;6396;58.490;15.528;2023-05-08T02:20:35;102220.84;;;6.07;99.16
12664;BME280;6396;58.490;15.528;2023-05-08T02:23:04;102313.72;;;6.64;97.73
12664;BME280;6396;58.490;15.528;2023-05-08T02:25:32;102311.09;;;6.64;99.38
12664;BME280;6396;58.490;15.528;2023-05-08T02:28:00;102247.38;;;6.22;100.00
12664;BME280;6396;58.490;15.528;2023-05-08T02:30:28;102151.53;;;5.44;100.00
12664;BME280;6396;58.490;15.528;2023-05-08T02:32:55;102329.47;;;6.64;100.00
12664;BME280;6396;58.490;15.528;2023-05-08T02:35:24;102313.81;;;6.72;100.00
12664;BME280;6396;58.490;15.528;2023-05-08T02:37:55;102309.59;;;6.78;100.00
12664;BME280;6396;58.490;15.528;2023-05-08T02:40:25;102314.84;;;6.80;100.00
12664;BME280;6396;58.490;15.528;2023-05-08T02:42:54;102360.34;;;6.80;100.00
12664;BME280;6396;58.490;15.528;2023-05-08T02:45:22;102314.91;;;6.83;100.00
12664;BME280;6396;58.490;15.528;2023-05-08T02:47:56;102004.66;;;4.87;100.00
12664;BME280;6396;58.490;15.528;2023-05-08T02:50:31;102244.25;;;6.44;95.91
12664;BME280;6396;58.490;15.528;2023-05-08T02:53:06;102313.31;;;6.93;100.00
12664;BME280;6396;58.490;15.528;2023-05-08T02:55:39;102314.25;;;6.96;99.80
12664;BME280;6396;58.490;15.528;2023-05-08T02:58:15;101973.28;;;4.89;100.00
12664;BME280;6396;58.490;15.528;2023-05-08T03:00:47;102313.44;;;7.02;100.00
12664;BME280;6396;58.490;15.528;2023-05-08T03:03:19;102345.06;;;7.09;99.59
12664;BME280;6396;58.490;15.528;2023-05-08T03:05:51;102314.50;;;7.13;93.95
12664;BME280;6396;58.490;15.528;2023-05-08T03:08:26;102252.50;;;6.67;96.02
12664;BME280;6396;58.490;15.528;2023-05-08T03:10:56;102308.31;;;7.11;91.88
12664;BME280;6396;58.490;15.528;2023-05-08T03:13:24;102311.81;;;7.08;93.85
12664;BME280;6396;58.490;15.528;2023-05-08T03:15:56;102309.19;;;7.08;89.29
12664;BME280;6396;58.490;15.528;2023-05-08T03:18:27;102304.84;;;7.12;92.34
12664;BME280;6396;58.490;15.528;2023-05-08T03:20:58;102218.22;;;6.56;90.62
12664;BME280;6396;58.490;15.528;2023-05-08T03:23:28;102311.75;;;7.05;87.47
12664;BME280;6396;58.490;15.528;2023-05-08T03:25:57;102350.19;;;7.02;89.63
12664;BME280;6396;58.490;15.528;2023-05-08T03:28:25;102373.91;;;7.05;90.92
12664;BME280;6396;58.490;15.528;2023-05-08T03:30:53;102311.81;;;7.08;89.79
12664;BME280;6396;58.490;15.528;2023-05-08T03:33:22;102146.75;;;6.17;87.05
12664;BME280;6396;58.490;15.528;2023-05-08T03:35:50;102134.44;;;6.13;87.92
12664;BME280;6396;58.490;15.528;2023-05-08T03:38:17;102289.75;;;6.99;92.46
12664;BME280;6396;58.490;15.528;2023-05-08T03:40:45;102310.16;;;7.16;97.90
12664;BME280;6396;58.490;15.528;2023-05-08T03:43:14;102137.16;;;6.19;91.58
12664;BME280;6396;58.490;15.528;2023-05-08T03:45:43;102091.00;;;5.78;97.75
12664;BME280;6396;58.490;15.528;2023-05-08T03:48:10;102312.00;;;7.20;94.76
12664;BME280;6396;58.490;15.528;2023-05-08T03:50:38;102265.13;;;6.91;100.00
12664;BME280;6396;58.490;15.528;2023-05-08T03:53:06;102209.00;;;6.29;100.00
12664;BME280;6396;58.490;15.528;2023-05-08T03:55:33;102311.88;;;7.14;95.96
12664;BME280;6396;58.490;15.528;2023-05-08T03:58:04;102325.94;;;7.18;100.00
12664;BME280;6396;58.490;15.528;2023-05-08T04:00:42;102098.47;;;5.57;100.00
12664;BME280;6396;58.490;15.528;2023-05-08T04:03:21;101907.88;;;4.90;100.00
12664;BME280;6396;58.490;15.528;2023-05-08T04:05:57;102311.25;;;7.29;96.58
12664;BME280;6396;58.490;15.528;2023-05-08T04:08:28;102128.63;;;6.32;98.92
12664;BME280;6396;58.490;15.528;2023-05-08T04:11:03;102311.38;;;7.38;94.35
12664;BME280;6396;58.490;15.528;2023-05-08T04:13:36;102312.22;;;7.38;98.96
12664;BME280;6396;58.490;15.528;2023-05-08T04:16:10;102306.13;;;7.38;96.76
12664;BME280;6396;58.490;15.528;2023-05-08T04:18:42;102079.34;;;6.12;91.51
12664;BME280;6396;58.490;15.528;2023-05-08T04:21:14;102308.00;;;7.48;95.01
12664;BME280;6396;58.490;15.528;2023-05-08T04:23:49;102312.34;;;7.46;90.19
12664;BME280;6396;58.490;15.528;2023-05-08T04:26:17;102302.72;;;7.46;93.38
12664;BME280;6396;58.490;15.528;2023-05-08T04:28:46;102308.03;;;7.52;92.87
12664;BME280;6396;58.490;15.528;2023-05-08T04:31:14;102355.41;;;7.54;90.96
12664;BME280;6396;58.490;15.528;2023-05-08T04:33:42;102314.22;;;7.56;92.29
12664;BME280;6396;58.490;15.528;2023-05-08T04:36:10;102172.94;;;6.69;92.59
12664;BME280;6396;58.490;15.528;2023-05-08T04:38:38;102311.69;;;7.62;91.84
12664;BME280;6396;58.490;15.528;2023-05-08T04:41:05;102298.38;;;7.47;93.04
12664;BME280;6396;58.490;15.528;2023-05-08T04:43:32;102312.63;;;7.65;93.97
12664;BME280;6396;58.490;15.528;2023-05-08T04:46:01;102299.44;;;7.61;93.61
12664;BME280;6396;58.490;15.528;2023-05-08T04:48:29;102010.94;;;5.95;92.25
12664;BME280;6396;58.490;15.528;2023-05-08T04:50:58;102228.72;;;7.16;92.44
12664;BME280;6396;58.490;15.528;2023-05-08T04:53:25;102312.00;;;7.86;94.28
12664;BME280;6396;58.490;15.528;2023-05-08T04:55:52;102293.28;;;7.62;94.50
12664;BME280;6396;58.490;15.528;2023-05-08T04:58:19;101744.94;;;4.46;93.11
12664;BME280;6396;58.490;15.528;2023-05-08T05:00:46;102326.97;;;7.90;89.00
12664;BME280;6396;58.490;15.528;2023-05-08T05:03:14;102280.59;;;7.29;92.34
12664;BME280;6396;58.490;15.528;2023-05-08T05:05:41;101742.44;;;4.51;88.22
12664;BME280;6396;58.490;15.528;2023-05-08T05:08:08;101653.91;;;3.71;88.65
12664;BME280;6396;58.490;15.528;2023-05-08T05:10:36;102272.38;;;7.71;89.99
12664;BME280;6396;58.490;15.528;2023-05-08T05:13:03;102333.31;;;8.10;88.34
12664;BME280;6396;58.490;15.528;2023-05-08T05:15:30;102216.81;;;7.41;88.49
12664;BME280;6396;58.490;15.528;2023-05-08T05:17:56;102335.31;;;8.26;88.96
12664;BME280;6396;58.490;15.528;2023-05-08T05:20:25;102332.75;;;8.34;86.66
12664;BME280;6396;58.490;15.528;2023-05-08T05:22:51;102239.22;;;7.83;85.36
12664;BME280;6396;58.490;15.528;2023-05-08T05:25:18;102328.50;;;8.45;85.12
12664;BME280;6396;58.490;15.528;2023-05-08T05:27:45;101967.94;;;6.45;84.26
12664;BME280;6396;58.490;15.528;2023-05-08T05:30:12;102330.38;;;8.58;83.75
12664;BME280;6396;58.490;15.528;2023-05-08T05:32:39;102156.50;;;7.54;84.79
12664;BME280;6396;58.490;15.528;2023-05-08T05:35:08;102336.66;;;8.73;85.40
12664;BME280;6396;58.490;15.528;2023-05-08T05:37:36;102333.22;;;8.82;86.48
12664;BME280;6396;58.490;15.528;2023-05-08T05:40:04;101856.59;;;6.21;84.33
12664;BME280;6396;58.490;15.528;2023-05-08T05:42:31;101974.56;;;6.91;81.00
12664;BME280;6396;58.490;15.528;2023-05-08T05:44:58;102337.75;;;8.99;81.32
12664;BME280;6396;58.490;15.528;2023-05-08T05:47:26;102333.47;;;9.09;82.22
12664;BME280;6396;58.490;15.528;2023-05-08T05:49:53;102146.50;;;8.04;80.92
12664;BME280;6396;58.490;15.528;2023-05-08T05:52:20;101974.75;;;7.08;78.21
12664;BME280;6396;58.490;15.528;2023-05-08T05:54:48;102331.81;;;9.28;78.74
12664;BME280;6396;58.490;15.528;2023-05-08T05:57:14;101914.25;;;6.96;79.27
12664;BME280;6396;58.490;15.528;2023-05-08T05:59:42;102187.13;;;8.33;78.92
12664;BME280;6396;58.490;15.528;2023-05-08T06:02:10;101974.16;;;7.37;79.20
12664;BME280;6396;58.490;15.528;2023-05-08T06:04:41;102080.69;;;7.97;76.35
12664;BME280;6396;58.490;15.528;2023-05-08T06:07:08;102283.47;;;9.27;77.38
12664;BME280;6396;58.490;15.528;2023-05-08T06:09:35;102294.19;;;9.53;75.64
12664;BME280;6396;58.490;15.528;2023-05-08T06:12:05;102309.13;;;9.54;71.52
12664;BME280;6396;58.490;15.528;2023-05-08T06:14:32;102251.97;;;9.47;68.59
12664;BME280;6396;58.490;15.528;2023-05-08T06:16:59;102247.59;;;9.47;68.62
12664;BME280;6396;58.490;15.528;2023-05-08T06:19:26;102322.53;;;9.99;69.04
12664;BME280;6396;58.490;15.528;2023-05-08T06:21:53;102328.72;;;10.05;69.33
12664;BME280;6396;58.490;15.528;2023-05-08T06:24:20;102325.22;;;10.09;66.47
12664;BME280;6396;58.490;15.528;2023-05-08T06:26:48;102326.13;;;10.13;66.66
12664;BME280;6396;58.490;15.528;2023-05-08T06:29:16;102346.41;;;10.23;65.76
12664;BME280;6396;58.490;15.528;2023-05-08T06:31:43;102225.63;;;9.56;65.05
12664;BME280;6396;58.490;15.528;2023-05-08T06:34:10;101998.53;;;8.35;65.12
12664;BME280;6396;58.490;15.528;2023-05-08T06:36:36;102249.59;;;10.10;65.39
12664;BME280;6396;58.490;15.528;2023-05-08T06:39:03;102257.53;;;10.22;64.52
12664;BME280;6396;58.490;15.528;2023-05-08T06:41:31;102171.16;;;9.62;65.17
12664;BME280;6396;58.490;15.528;2023-05-08T06:43:57;102269.88;;;10.46;65.12
12664;BME280;6396;58.490;15.528;2023-05-08T06:46:26;102320.97;;;10.96;64.41
12664;BME280;6396;58.490;15.528;2023-05-08T06:48:54;102245.25;;;10.54;66.20
12664;BME280;6396;58.490;15.528;2023-05-08T06:51:21;102324.47;;;11.14;63.28
12664;BME280;6396;58.490;15.528;2023-05-08T06:53:47;102295.41;;;11.16;63.83
12664;BME280;6396;58.490;15.528;2023-05-08T06:56:14;101938.22;;;9.32;62.57
12664;BME280;6396;58.490;15.528;2023-05-08T06:58:41;102322.59;;;11.81;62.37
12664;BME280;6396;58.490;15.528;2023-05-08T07:01:08;102281.91;;;12.00;61.57
12664;BME280;6396;58.490;15.528;2023-05-08T07:03:36;102318.66;;;12.56;60.21
12664;BME280;6396;58.490;15.528;2023-05-08T07:06:06;102255.53;;;13.06;59.94
12664;BME280;6396;58.490;15.528;2023-05-08T07:08:33;102256.56;;;14.36;56.29
12664;BME280;6396;58.490;15.528;2023-05-08T07:11:00;102308.03;;;16.22;52.23
12664;BME280;6396;58.490;15.528;2023-05-08T07:13:26;102308.94;;;17.31;48.69
12664;BME280;6396;58.490;15.528;2023-05-08T07:15:53;102277.47;;;18.33;46.38
12664;BME280;6396;58.490;15.528;2023-05-08T07:18:20;102296.59;;;19.53;45.31
12664;BME280;6396;58.490;15.528;2023-05-08T07:20:48;102218.94;;;19.51;42.31
12664;BME280;6396;58.490;15.528;2023-05-08T07:23:15;102233.75;;;19.84;40.67
12664;BME280;6396;58.490;15.528;2023-05-08T07:25:42;102086.44;;;20.01;39.81
12664;BME280;6396;58.490;15.528;2023-05-08T07:28:09;102290.69;;;21.62;38.93
12664;BME280;6396;58.490;15.528;2023-05-08T07:30:35;102310.81;;;21.34;35.62
12664;BME280;6396;58.490;15.528;2023-05-08T07:33:02;102287.78;;;21.48;36.91
12664;BME280;6396;58.490;15.528;2023-05-08T07:35:29;102294.44;;;21.98;35.76
12664;BME280;6396;58.490;15.528;2023-05-08T07:37:57;101951.78;;;20.14;33.52
12664;BME280;6396;58.490;15.528;2023-05-08T07:40:24;102115.41;;;21.54;35.06
12664;BME280;6396;58.490;15.528;2023-05-08T07:42:51;102287.31;;;22.53;33.47
12664;BME280;6396;58.490;15.528;2023-05-08T07:45:18;102290.88;;;22.89;33.05
12664;BME280;6396;58.490;15.528;2023-05-08T07:47:49;102289.97;;;22.55;32.67
12664;BME280;6396;58.490;15.528;2023-05-08T07:50:16;102281.84;;;22.90;33.14
12664;BME280;6396;58.490;15.528;2023-05-08T07:52:42;102286.22;;;23.27;32.96
12664;BME280;6396;58.490;15.528;2023-05-08T07:55:11;102219.06;;;23.22;32.96
12664;BME280;6396;58.490;15.528;2023-05-08T07:57:38;102292.31;;;23.97;32.64
12664;BME280;6396;58.490;15.528;2023-05-08T08:00:07;102273.84;;;24.38;32.01
12664;BME280;6396;58.490;15.528;2023-05-08T08:02:34;102276.94;;;24.62;32.40
12664;BME280;6396;58.490;15.528;2023-05-08T08:05:01;102244.81;;;24.42;31.76
12664;BME280;6396;58.490;15.528;2023-05-08T08:07:28;102272.44;;;24.78;31.06
12664;BME280;6396;58.490;15.528;2023-05-08T08:09:57;102111.38;;;23.83;29.65
12664;BME280;6396;58.490;15.528;2023-05-08T08:12:25;102197.50;;;24.35;30.39
12664;BME280;6396;58.490;15.528;2023-05-08T08:14:52;101926.09;;;23.07;29.99
12664;BME280;6396;58.490;15.528;2023-05-08T08:17:22;102195.13;;;24.60;29.40
12664;BME280;6396;58.490;15.528;2023-05-08T08:19:49;102308.31;;;24.95;30.02
12664;BME280;6396;58.490;15.528;2023-05-08T08:22:16;102270.50;;;24.80;29.36
12664;BME280;6396;58.490;15.528;2023-05-08T08:24:43;102216.75;;;24.60;28.48
12664;BME280;6396;58.490;15.528;2023-05-08T08:27:10;102246.66;;;24.25;27.71
12664;BME280;6396;58.490;15.528;2023-05-08T08:29:39;102277.13;;;24.59;28.29
12664;BME280;6396;58.490;15.528;2023-05-08T08:32:06;102201.19;;;24.02;28.67
12664;BME280;6396;58.490;15.528;2023-05-08T08:34:33;102269.38;;;24.21;28.00
12664;BME280;6396;58.490;15.528;2023-05-08T08:37:00;102286.88;;;24.30;29.18
12664;BME280;6396;58.490;15.528;2023-05-08T08:39:26;102158.31;;;23.96;29.30
12664;BME280;6396;58.490;15.528;2023-05-08T08:41:54;102033.41;;;23.32;29.44
12664;BME280;6396;58.490;15.528;2023-05-08T08:44:20;102053.84;;;23.98;29.23
12664;BME280;6396;58.490;15.528;2023-05-08T08:46:50;102269.56;;;25.40;27.29
12664;BME280;6396;58.490;15.528;2023-05-08T08:49:18;102260.97;;;25.62;27.81
12664;BME280;6396;58.490;15.528;2023-05-08T08:51:52;102258.81;;;25.38;28.69
12664;BME280;6396;58.490;15.528;2023-05-08T08:54:23;102258.81;;;25.38;29.04
12664;BME280;6396;58.490;15.528;2023-05-08T08:56:50;102257.91;;;25.24;27.61
12664;BME280;6396;58.490;15.528;2023-05-08T08:59:18;102284.47;;;25.31;27.85
12664;BME280;6396;58.490;15.528;2023-05-08T09:01:47;102262.16;;;25.28;27.31
12664;BME280;6396;58.490;15.528;2023-05-08T09:04:17;102259.41;;;24.69;26.64
12664;BME280;6396;58.490;15.528;2023-05-08T09:06:44;102254.44;;;24.92;28.45
12664;BME280;6396;58.490;15.528;2023-05-08T09:09:11;102106.84;;;24.15;28.19
12664;BME280;6396;58.490;15.528;2023-05-08T09:11:39;101926.41;;;23.48;28.52
12664;BME280;6396;58.490;15.528;2023-05-08T09:14:06;102254.03;;;25.14;27.60
12664;BME280;6396;58.490;15.528;2023-05-08T09:16:34;102142.75;;;24.47;27.49
12664;BME280;6396;58.490;15.528;2023-05-08T09:19:01;102122.91;;;24.32;26.67
12664;BME280;6396;58.490;15.528;2023-05-08T09:21:30;102246.94;;;24.97;26.54
12664;BME280;6396;58.490;15.528;2023-05-08T09:23:59;102248.78;;;24.66;27.10
12664;BME280;6396;58.490;15.528;2023-05-08T09:26:28;102239.66;;;24.84;27.72
12664;BME280;6396;58.490;15.528;2023-05-08T09:29:13;102245.72;;;25.17;26.56
12664;BME280;6396;58.490;15.528;2023-05-08T09:31:45;102239.75;;;25.26;26.32
12664;BME280;6396;58.490;15.528;2023-05-08T09:34:22;102132.34;;;24.55;26.14
12664;BME280;6396;58.490;15.528;2023-05-08T09:37:10;102242.53;;;25.40;26.00
12664;BME280;6396;58.490;15.528;2023-05-08T09:39:37;102147.19;;;25.21;27.60
12664;BME280;6396;58.490;15.528;2023-05-08T09:42:08;102032.75;;;24.35;25.58
12664;BME280;6396;58.490;15.528;2023-05-08T09:44:45;102240.00;;;25.93;25.87
12664;BME280;6396;58.490;15.528;2023-05-08T09:47:14;102196.41;;;25.84;27.00
12664;BME280;6396;58.490;15.528;2023-05-08T09:49:58;102116.47;;;25.22;27.01
12664;BME280;6396;58.490;15.528;2023-05-08T09:52:33;102228.00;;;26.11;25.67
12664;BME280;6396;58.490;15.528;2023-05-08T09:55:03;102221.53;;;26.40;26.64
12664;BME280;6396;58.490;15.528;2023-05-08T09:57:32;102218.56;;;26.58;25.77
12664;BME280;6396;58.490;15.528;2023-05-08T10:00:02;102203.81;;;26.22;26.53
12664;BME280;6396;58.490;15.528;2023-05-08T10:02:30;102234.69;;;26.47;24.93
12664;BME280;6396;58.490;15.528;2023-05-08T10:04:57;101930.63;;;24.83;25.92
12664;BME280;6396;58.490;15.528;2023-05-08T10:07:34;102231.50;;;26.67;25.22
12664;BME280;6396;58.490;15.528;2023-05-08T10:10:02;101702.44;;;23.92;25.80
12664;BME280;6396;58.490;15.528;2023-05-08T10:12:30;102205.34;;;26.80;25.18
12664;BME280;6396;58.490;15.528;2023-05-08T10:14:58;102188.34;;;26.64;25.81
12664;BME280;6396;58.490;15.528;2023-05-08T10:17:26;102144.00;;;26.25;25.07
12664;BME280;6396;58.490;15.528;2023-05-08T10:19:59;102167.56;;;26.77;26.41
12664;BME280;6396;58.490;15.528;2023-05-08T10:25:55;102157.53;;;26.52;25.06
12664;BME280;6396;58.490;15.528;2023-05-08T10:28:28;102198.31;;;26.63;24.85
12664;BME280;6396;58.490;15.528;2023-05-08T10:30:59;102197.38;;;26.77;25.47
12664;BME280;6396;58.490;15.528;2023-05-08T10:33:29;102165.13;;;26.60;24.94
12664;BME280;6396;58.490;15.528;2023-05-08T10:35:58;102087.94;;;26.26;26.62
12664;BME280;6396;58.490;15.528;2023-05-08T10:38:26;102150.72;;;26.59;24.97
12664;BME280;6396;58.490;15.528;2023-05-08T10:40:55;102117.72;;;26.13;25.77
12664;BME280;6396;58.490;15.528;2023-05-08T10:43:28;101887.97;;;24.74;25.90
12664;BME280;6396;58.490;15.528;2023-05-08T10:45:56;102118.03;;;25.95;25.93
12664;BME280;6396;58.490;15.528;2023-05-08T10:48:27;102178.34;;;26.52;26.44
12664;BME280;6396;58.490;15.528;2023-05-08T10:51:01;102075.47;;;25.70;25.83
12664;BME280;6396;58.490;15.528;2023-05-08T10:53:35;102174.13;;;26.33;22.91
12664;BME280;6396;58.490;15.528;2023-05-08T10:56:06;102172.34;;;26.20;25.12
12664;BME280;6396;58.490;15.528;2023-05-08T10:58:35;101990.81;;;25.13;24.02
12664;BME280;6396;58.490;15.528;2023-05-08T11:01:15;102169.38;;;25.96;27.94
12664;BME280;6396;58.490;15.528;2023-05-08T11:03:44;102126.19;;;25.81;26.07
12664;BME280;6396;58.490;15.528;2023-05-08T11:06:11;102090.72;;;25.85;25.80
12664;BME280;6396;58.490;15.528;2023-05-08T11:08:46;102154.84;;;26.25;24.71
12664;BME280;6396;58.490;15.528;2023-05-08T11:11:27;102151.34;;;25.69;24.18
12664;BME280;6396;58.490;15.528;2023-05-08T11:13:59;101847.38;;;23.76;25.20
12664;BME280;6396;58.490;15.528;2023-05-08T11:19:54;102094.53;;;25.26;28.40
12664;BME280;6396;58.490;15.528;2023-05-08T11:22:30;102128.19;;;25.51;29.14
12664;BME280;6396;58.490;15.528;2023-05-08T11:25:02;101954.53;;;24.47;27.95
12664;BME280;6396;58.490;15.528;2023-05-08T11:27:34;102116.47;;;24.94;27.47
12664;BME280;6396;58.490;15.528;2023-05-08T11:30:20;102095.81;;;24.33;27.67
12664;BME280;6396;58.490;15.528;2023-05-08T11:33:12;102115.75;;;24.47;25.86
12664;BME280;6396;58.490;15.528;2023-05-08T11:35:41;101866.16;;;22.87;28.24
12664;BME280;6396;58.490;15.528;2023-05-08T11:38:17;102115.69;;;24.62;28.23
12664;BME280;6396;58.490;15.528;2023-05-08T11:40:45;101912.31;;;23.27;27.53
12664;BME280;6396;58.490;15.528;2023-05-08T11:46:29;102146.97;;;24.96;27.92
12664;BME280;6396;58.490;15.528;2023-05-08T11:48:58;101898.63;;;23.62;27.53
12664;BME280;6396;58.490;15.528;2023-05-08T11:51:29;102009.06;;;23.94;28.87
12664;BME280;6396;58.490;15.528;2023-05-08T11:53:57;101913.03;;;23.00;28.42
12664;BME280;6396;58.490;15.528;2023-05-08T11:56:25;102112.56;;;24.40;29.25
12664;BME280;6396;58.490;15.528;2023-05-08T11:59:01;102102.06;;;23.89;26.94
12664;BME280;6396;58.490;15.528;2023-05-08T12:01:29;102119.84;;;23.77;27.48
12664;BME280;6396;58.490;15.528;2023-05-08T12:04:04;101534.25;;;20.31;25.54
12664;BME280;6396;58.490;15.528;2023-05-08T12:06:32;102095.00;;;23.86;27.57
12664;BME280;6396;58.490;15.528;2023-05-08T12:09:00;101874.66;;;22.15;28.40
12664;BME280;6396;58.490;15.528;2023-05-08T12:11:29;101860.22;;;22.34;29.63
12664;BME280;6396;58.490;15.528;2023-05-08T12:13:56;101834.03;;;22.20;27.46
12664;BME280;6396;58.490;15.528;2023-05-08T12:16:23;101940.41;;;22.44;26.10
12664;BME280;6396;58.490;15.528;2023-05-08T12:18:52;102113.91;;;23.55;26.65
12664;BME280;6396;58.490;15.528;2023-05-08T12:21:21;102017.56;;;22.78;29.53
12664;BME280;6396;58.490;15.528;2023-05-08T12:23:48;101969.22;;;22.42;27.49
12664;BME280;6396;58.490;15.528;2023-05-08T12:26:16;101910.13;;;21.55;30.77
12664;BME280;6396;58.490;15.528;2023-05-08T12:28:44;101921.38;;;22.14;26.33
12664;BME280;6396;58.490;15.528;2023-05-08T12:31:12;102062.31;;;23.13;25.98
12664;BME280;6396;58.490;15.528;2023-05-08T12:33:39;101859.44;;;21.82;25.98
12664;BME280;6396;58.490;15.528;2023-05-08T12:36:08;101845.81;;;21.51;26.98
12664;BME280;6396;58.490;15.528;2023-05-08T12:38:35;102080.44;;;22.61;28.80
12664;BME280;6396;58.490;15.528;2023-05-08T12:41:02;101937.13;;;21.88;27.94
12664;BME280;6396;58.490;15.528;2023-05-08T12:43:32;101900.78;;;21.62;24.54
12664;BME280;6396;58.490;15.528;2023-05-08T12:46:00;102058.41;;;22.53;25.15
12664;BME280;6396;58.490;15.528;2023-05-08T12:48:27;102068.53;;;22.65;26.28
12664;BME280;6396;58.490;15.528;2023-05-08T12:51:00;101803.84;;;21.14;23.51
12664;BME280;6396;58.490;15.528;2023-05-08T12:53:30;101959.44;;;22.07;26.21
12664;BME280;6396;58.490;15.528;2023-05-08T12:56:01;102077.09;;;22.56;25.33
12664;BME280;6396;58.490;15.528;2023-05-08T12:58:30;101962.16;;;21.54;21.90
12664;BME280;6396;58.490;15.528;2023-05-08T13:01:05;101823.13;;;20.68;23.49
12664;BME280;6396;58.490;15.528;2023-05-08T13:03:34;102060.66;;;21.92;22.83
12664;BME280;6396;58.490;15.528;2023-05-08T13:06:01;102007.78;;;21.56;23.77
12664;BME280;6396;58.490;15.528;2023-05-08T13:08:32;102031.78;;;21.77;22.32
12664;BME280;6396;58.490;15.528;2023-05-08T13:11:00;101954.25;;;21.33;24.37
12664;BME280;6396;58.490;15.528;2023-05-08T13:13:29;102034.88;;;21.88;24.74
12664;BME280;6396;58.490;15.528;2023-05-08T13:15:56;102054.63;;;21.87;22.48
12664;BME280;6396;58.490;15.528;2023-05-08T13:18:25;102028.06;;;21.81;23.94